createdAt,value
2023-05-24T00:02:14.201Z,17.30
2023-05-24T00:04:42.283Z,17.24
2023-05-24T00:07:09.173Z,17.21
2023-05-24T00:09:35.908Z,17.23
2023-05-24T00:12:03.307Z,17.30
2023-05-24T00:14:30.347Z,17.16
2023-05-24T00:16:57.005Z,17.18
2023-05-24T00:19:24.074Z,17.07
2023-05-24T00:21:50.821Z,17.17
2023-05-24T00:24:17.563Z,17.18
2023-05-24T00:26:44.961Z,17.07
2023-05-24T00:29:12.169Z,17.04
2023-05-24T00:31:39.068Z,17.01
2023-05-24T00:34:06.410Z,17.04
2023-05-24T00:36:33.287Z,17.04
2023-05-24T00:39:00.236Z,16.83
2023-05-24T00:41:26.974Z,16.90
2023-05-24T00:43:53.602Z,16.90
2023-05-24T00:46:32.126Z,17.10
2023-05-24T00:49:00.466Z,17.24
2023-05-24T00:51:28.061Z,17.28
2023-05-24T00:53:55.553Z,17.33
2023-05-24T00:56:23.068Z,17.34
2023-05-24T00:58:54.589Z,17.30
2023-05-24T01:01:21.675Z,17.30
2023-05-24T01:03:48.633Z,17.20
2023-05-24T01:06:16.308Z,17.28
2023-05-24T01:09:25.685Z,17.18
2023-05-24T01:12:30.501Z,17.34
2023-05-24T01:15:19.150Z,17.32
2023-05-24T01:18:05.569Z,17.26
2023-05-24T01:20:34.054Z,17.36
2023-05-24T01:23:15.282Z,17.50
2023-05-24T01:26:08.434Z,17.62
2023-05-24T01:28:36.103Z,17.55
2023-05-24T01:31:04.104Z,17.53
2023-05-24T01:33:33.753Z,17.46
2023-05-24T01:36:00.513Z,17.40
2023-05-24T01:38:27.156Z,17.41
2023-05-24T01:41:04.802Z,17.37
2023-05-24T01:43:41.356Z,17.27
2023-05-24T01:46:33.444Z,17.34
2023-05-24T01:49:18.035Z,17.41
2023-05-24T01:51:51.598Z,17.43
2023-05-24T01:54:23.403Z,17.43
2023-05-24T01:56:52.973Z,17.43
2023-05-24T01:59:22.556Z,17.46
2023-05-24T02:01:49.789Z,17.46
2023-05-24T02:04:17.612Z,17.47
2023-05-24T02:06:44.198Z,17.45
2023-05-24T02:09:10.776Z,17.42
2023-05-24T02:11:37.391Z,17.29
2023-05-24T02:14:03.982Z,17.27
2023-05-24T02:16:30.849Z,17.21
2023-05-24T02:18:58.062Z,17.34
2023-05-24T02:21:25.895Z,17.32
2023-05-24T02:23:52.577Z,17.39
2023-05-24T02:26:19.971Z,17.35
2023-05-24T02:28:48.946Z,17.32
2023-05-24T02:31:15.579Z,17.31
2023-05-24T02:33:42.247Z,17.33
2023-05-24T02:36:09.012Z,17.28
2023-05-24T02:38:37.199Z,17.23
2023-05-24T02:41:04.054Z,17.23
2023-05-24T02:43:30.745Z,17.25
2023-05-24T02:45:57.323Z,17.24
2023-05-24T02:48:24.025Z,17.14
2023-05-24T02:50:51.371Z,17.30
2023-05-24T02:53:17.918Z,17.21
2023-05-24T02:55:46.747Z,17.25
2023-05-24T02:58:13.662Z,17.25
2023-05-24T03:00:40.460Z,17.31
2023-05-24T03:03:07.213Z,17.22
2023-05-24T03:05:33.836Z,17.29
2023-05-24T03:08:00.396Z,17.28
2023-05-24T03:10:26.974Z,17.26
2023-05-24T03:12:53.622Z,17.18
2023-05-24T03:15:20.256Z,17.28
2023-05-24T03:17:46.976Z,17.26
2023-05-24T03:20:13.606Z,17.15
2023-05-24T03:22:40.212Z,17.15
2023-05-24T03:25:08.766Z,17.17
2023-05-24T03:27:36.475Z,17.12
2023-05-24T03:30:03.479Z,17.14
2023-05-24T03:32:30.099Z,17.13
2023-05-24T03:34:57.666Z,16.75
2023-05-24T03:37:24.272Z,16.79
2023-05-24T03:39:50.891Z,16.69
2023-05-24T03:42:17.531Z,16.84
2023-05-24T03:44:44.269Z,17.00
2023-05-24T03:47:10.930Z,17.06
2023-05-24T03:49:37.553Z,17.12
2023-05-24T03:52:04.286Z,16.87
2023-05-24T03:54:31.013Z,16.65
2023-05-24T03:56:57.596Z,16.76
2023-05-24T03:59:24.399Z,16.77
2023-05-24T04:01:51.037Z,16.82
2023-05-24T04:04:17.741Z,16.80
2023-05-24T04:06:44.393Z,16.86
2023-05-24T04:09:10.965Z,16.66
2023-05-24T04:11:37.573Z,16.72
2023-05-24T04:14:04.155Z,16.60
2023-05-24T04:16:34.155Z,16.63
2023-05-24T04:19:03.962Z,16.68
2023-05-24T04:21:32.198Z,16.52
2023-05-24T04:24:02.202Z,16.57
2023-05-24T04:26:29.849Z,16.70
2023-05-24T04:28:57.452Z,16.47
2023-05-24T04:31:24.135Z,16.64
2023-05-24T04:33:50.729Z,16.54
2023-05-24T04:36:17.793Z,16.66
2023-05-24T04:38:45.829Z,16.61
2023-05-24T04:41:13.552Z,16.58
2023-05-24T04:43:40.737Z,16.45
2023-05-24T04:46:09.156Z,16.67
2023-05-24T04:48:36.226Z,16.74
2023-05-24T04:51:02.949Z,16.70
2023-05-24T04:53:29.609Z,16.54
2023-05-24T04:55:56.289Z,16.52
2023-05-24T04:58:22.851Z,16.45
2023-05-24T05:00:49.465Z,16.52
2023-05-24T05:03:16.405Z,16.66
2023-05-24T05:05:43.157Z,16.75
2023-05-24T05:08:09.847Z,16.81
2023-05-24T05:10:36.809Z,16.76
2023-05-24T05:13:03.481Z,16.84
2023-05-24T05:15:30.773Z,16.57
2023-05-24T05:17:57.415Z,16.43
2023-05-24T05:20:24.790Z,16.51
2023-05-24T05:22:51.402Z,16.50
2023-05-24T05:25:18.210Z,16.67
2023-05-24T05:27:44.765Z,16.84
2023-05-24T05:30:11.929Z,16.86
2023-05-24T05:32:38.639Z,16.79
2023-05-24T05:35:05.936Z,16.65
2023-05-24T05:37:32.630Z,16.69
2023-05-24T05:39:59.428Z,16.45
2023-05-24T05:42:26.143Z,16.42
2023-05-24T05:44:52.856Z,16.36
2023-05-24T05:47:19.549Z,16.51
2023-05-24T05:49:46.178Z,16.36
2023-05-24T05:52:12.841Z,16.39
2023-05-24T05:54:39.490Z,16.39
2023-05-24T05:57:08.237Z,16.07
2023-05-24T05:59:36.313Z,16.34
2023-05-24T06:02:04.150Z,16.24
2023-05-24T06:04:31.766Z,16.52
2023-05-24T06:06:58.411Z,16.54
2023-05-24T06:09:25.119Z,16.68
2023-05-24T06:11:51.782Z,16.88
2023-05-24T06:14:18.544Z,16.73
2023-05-24T06:16:46.100Z,16.88
2023-05-24T06:19:13.643Z,16.86
2023-05-24T06:21:47.183Z,16.91
2023-05-24T06:24:21.447Z,16.56
2023-05-24T06:26:48.720Z,16.73
2023-05-24T06:29:15.409Z,16.87
2023-05-24T06:31:43.521Z,16.73
2023-05-24T06:34:10.428Z,17.04
2023-05-24T06:36:41.398Z,16.70
2023-05-24T06:39:11.106Z,16.49
2023-05-24T06:41:39.055Z,16.52
2023-05-24T06:44:05.835Z,16.81
2023-05-24T06:46:33.091Z,16.97
2023-05-24T06:48:59.828Z,16.83
2023-05-24T06:51:26.633Z,16.50
2023-05-24T06:53:53.711Z,16.79
2023-05-24T06:56:20.414Z,16.52
2023-05-24T06:58:47.593Z,16.90
2023-05-24T07:01:14.645Z,17.07
2023-05-24T07:03:41.470Z,17.07
2023-05-24T07:06:10.086Z,17.13
2023-05-24T07:08:36.864Z,17.03
2023-05-24T07:11:04.125Z,16.99
2023-05-24T07:13:30.934Z,16.75
2023-05-24T07:15:57.601Z,16.82
2023-05-24T07:18:24.168Z,16.50
2023-05-24T07:20:50.875Z,16.65
2023-05-24T07:23:17.701Z,16.70
2023-05-24T07:25:44.272Z,16.77
2023-05-24T07:28:11.319Z,16.92
2023-05-24T07:30:39.400Z,17.25
2023-05-24T07:33:06.646Z,16.98
2023-05-24T07:35:33.344Z,17.03
2023-05-24T07:37:59.967Z,17.23
2023-05-24T07:40:26.694Z,17.55
2023-05-24T07:42:53.313Z,17.69
2023-05-24T07:45:20.568Z,17.67
2023-05-24T07:47:47.241Z,17.69
2023-05-24T07:50:13.873Z,17.63
2023-05-24T07:52:40.557Z,17.71
2023-05-24T07:55:07.997Z,17.48
2023-05-24T07:57:34.547Z,17.63
2023-05-24T08:00:07.452Z,17.50
2023-05-24T08:02:34.930Z,17.37
2023-05-24T08:05:01.695Z,17.73
2023-05-24T08:07:28.863Z,17.88
2023-05-24T08:09:55.668Z,17.88
2023-05-24T08:12:22.689Z,18.13
2023-05-24T08:14:49.366Z,18.28
2023-05-24T08:17:15.924Z,17.96
2023-05-24T08:19:42.502Z,18.05
2023-05-24T08:22:10.215Z,18.01
2023-05-24T08:24:36.898Z,17.91
2023-05-24T08:27:04.506Z,17.90
2023-05-24T08:29:31.512Z,17.97
2023-05-24T08:31:58.562Z,17.99
2023-05-24T08:34:25.203Z,18.27
2023-05-24T08:36:51.805Z,18.08
2023-05-24T08:39:18.357Z,18.36
2023-05-24T08:41:51.555Z,17.94
2023-05-24T08:44:25.900Z,18.11
2023-05-24T08:46:54.961Z,18.25
2023-05-24T08:49:21.751Z,18.41
2023-05-24T08:51:49.884Z,18.33
2023-05-24T08:54:16.717Z,18.30
2023-05-24T08:56:43.685Z,18.25
2023-05-24T08:59:11.559Z,18.16
2023-05-24T09:01:41.630Z,18.18
2023-05-24T09:04:09.077Z,18.23
2023-05-24T09:06:37.094Z,18.43
2023-05-24T09:09:04.720Z,18.13
2023-05-24T09:11:32.549Z,18.15
2023-05-24T09:14:00.855Z,18.39
2023-05-24T09:16:28.212Z,18.49
2023-05-24T09:18:54.833Z,18.41
2023-05-24T09:21:22.333Z,18.33
2023-05-24T09:23:49.477Z,18.69
2023-05-24T09:26:16.143Z,18.55
2023-05-24T09:28:43.853Z,18.49
2023-05-24T09:31:10.689Z,18.57
2023-05-24T09:33:39.370Z,18.37
2023-05-24T09:36:07.194Z,18.42
2023-05-24T09:38:36.365Z,18.44
2023-05-24T09:41:05.702Z,18.21
2023-05-24T09:43:34.755Z,18.30
2023-05-24T09:46:04.952Z,18.69
2023-05-24T09:48:32.084Z,18.29
2023-05-24T09:51:06.408Z,18.30
2023-05-24T09:53:34.959Z,18.64
2023-05-24T09:56:04.264Z,18.63
2023-05-24T09:58:34.449Z,18.65
2023-05-24T10:01:08.728Z,18.69
2023-05-24T10:03:37.867Z,18.96
2023-05-24T10:06:07.820Z,19.31
2023-05-24T10:08:36.197Z,19.16
2023-05-24T10:11:06.921Z,18.95
2023-05-24T10:13:36.712Z,18.90
2023-05-24T10:16:03.936Z,19.16
2023-05-24T10:18:30.633Z,18.92
2023-05-24T10:20:58.363Z,19.16
2023-05-24T10:23:29.437Z,19.17
2023-05-24T10:26:14.530Z,19.46
2023-05-24T10:28:54.722Z,19.24
2023-05-24T10:31:28.317Z,19.05
2023-05-24T10:34:06.619Z,19.30
2023-05-24T10:36:35.242Z,19.55
2023-05-24T10:39:02.280Z,19.82
2023-05-24T10:41:29.254Z,19.79
2023-05-24T10:44:09.414Z,19.98
2023-05-24T10:46:36.770Z,19.76
2023-05-24T10:49:06.072Z,19.43
2023-05-24T10:51:38.474Z,19.50
2023-05-24T10:54:13.793Z,19.62
2023-05-24T10:56:43.215Z,19.61
2023-05-24T10:59:09.881Z,19.75
2023-05-24T11:01:36.800Z,19.52
2023-05-24T11:04:10.191Z,19.69
2023-05-24T11:06:49.918Z,19.74
2023-05-24T11:09:22.457Z,19.65
2023-05-24T11:11:51.089Z,19.57
2023-05-24T11:14:24.546Z,19.47
2023-05-24T11:16:51.953Z,19.52
2023-05-24T11:19:31.348Z,19.79
2023-05-24T11:21:59.059Z,19.90
2023-05-24T11:24:27.064Z,19.90
2023-05-24T11:26:54.148Z,19.76
2023-05-24T11:29:22.944Z,20.14
2023-05-24T11:32:04.624Z,20.05
2023-05-24T11:34:32.754Z,20.15
2023-05-24T11:37:00.559Z,19.77
2023-05-24T11:39:36.758Z,19.90
2023-05-24T11:42:07.738Z,19.73
2023-05-24T11:44:38.016Z,19.66
2023-05-24T11:47:07.315Z,19.74
2023-05-24T11:49:34.745Z,19.91
2023-05-24T11:52:02.650Z,19.88
2023-05-24T11:54:31.855Z,20.05
2023-05-24T11:56:58.544Z,19.70
2023-05-24T11:59:26.979Z,19.61
2023-05-24T12:02:04.568Z,19.84
2023-05-24T12:04:32.623Z,20.01
2023-05-24T12:06:59.815Z,19.92
2023-05-24T12:09:27.102Z,20.18
2023-05-24T12:11:54.700Z,20.32
2023-05-24T12:14:27.744Z,20.07
2023-05-24T12:16:56.569Z,20.24
2023-05-24T12:19:33.935Z,20.32
2023-05-24T12:22:05.222Z,20.28
2023-05-24T12:24:32.490Z,20.07
2023-05-24T12:27:09.790Z,19.82
2023-05-24T12:29:38.843Z,19.91
2023-05-24T12:32:06.711Z,19.65
2023-05-24T12:34:33.371Z,19.64
2023-05-24T12:37:03.116Z,19.66
2023-05-24T12:39:36.790Z,19.47
2023-05-24T12:42:04.693Z,19.44
2023-05-24T12:44:36.735Z,19.42
2023-05-24T12:47:05.287Z,19.62
2023-05-24T12:49:32.334Z,19.43
2023-05-24T12:51:59.992Z,19.65
2023-05-24T12:54:28.439Z,19.59
2023-05-24T12:56:57.463Z,19.63
2023-05-24T12:59:26.541Z,19.59
2023-05-24T13:01:53.626Z,20.00
2023-05-24T13:04:21.966Z,20.02
2023-05-24T13:06:49.330Z,19.98
2023-05-24T13:09:19.118Z,20.18
2023-05-24T13:11:47.204Z,20.02
2023-05-24T13:14:15.574Z,20.31
2023-05-24T13:16:42.460Z,20.22
2023-05-24T13:19:09.240Z,19.98
2023-05-24T13:21:35.926Z,19.98
2023-05-24T13:24:02.725Z,19.87
2023-05-24T13:26:30.671Z,19.89
2023-05-24T13:31:28.450Z,19.46
2023-05-24T13:33:55.450Z,19.58
2023-05-24T13:36:22.113Z,19.38
2023-05-24T13:38:56.473Z,19.59
2023-05-24T13:41:29.142Z,19.79
2023-05-24T13:43:55.874Z,19.67
2023-05-24T13:46:23.238Z,19.72
2023-05-24T13:48:49.860Z,19.84
2023-05-24T13:51:18.721Z,19.40
2023-05-24T13:53:45.353Z,19.38
2023-05-24T13:56:11.926Z,19.34
2023-05-24T13:58:38.543Z,19.45
2023-05-24T14:01:05.177Z,19.51
2023-05-24T14:03:31.724Z,19.52
2023-05-24T14:05:58.491Z,19.55
2023-05-24T14:08:25.894Z,19.32
2023-05-24T14:10:53.747Z,19.26
2023-05-24T14:14:02.489Z,19.51
2023-05-24T14:16:08.787Z,19.74
2023-05-24T14:18:36.525Z,19.66
2023-05-24T14:21:03.468Z,19.60
2023-05-24T14:23:32.042Z,20.12
2023-05-24T14:26:00.233Z,20.19
2023-05-24T14:28:27.013Z,19.90
2023-05-24T14:30:53.599Z,19.80
2023-05-24T14:33:20.387Z,20.28
2023-05-24T14:35:47.226Z,20.34
2023-05-24T14:38:13.902Z,20.46
2023-05-24T14:40:40.935Z,20.42
2023-05-24T14:43:10.535Z,20.47
2023-05-24T14:45:38.683Z,20.59
2023-05-24T14:48:05.876Z,20.51
2023-05-24T14:50:32.991Z,20.23
2023-05-24T14:53:01.245Z,20.41
2023-05-24T14:55:27.842Z,20.62
2023-05-24T14:57:54.607Z,21.13
2023-05-24T15:00:23.272Z,20.72
2023-05-24T15:02:51.204Z,20.91
2023-05-24T15:05:17.866Z,22.07
2023-05-24T15:07:44.438Z,22.40
2023-05-24T15:10:11.445Z,23.12
2023-05-24T15:12:38.173Z,23.20
2023-05-24T15:15:06.856Z,23.28
2023-05-24T15:17:34.017Z,23.08
2023-05-24T15:20:00.771Z,23.22
2023-05-24T15:22:27.672Z,23.70
2023-05-24T15:24:54.241Z,23.31
2023-05-24T15:27:20.846Z,23.45
2023-05-24T15:29:47.573Z,23.47
2023-05-24T15:32:14.248Z,23.63
2023-05-24T15:34:41.265Z,22.56
2023-05-24T15:37:07.941Z,22.32
2023-05-24T15:39:34.558Z,22.57
2023-05-24T15:42:01.099Z,22.49
2023-05-24T15:44:28.012Z,21.82
2023-05-24T15:46:54.694Z,22.24
2023-05-24T15:49:23.244Z,23.14
2023-05-24T15:52:03.898Z,23.87
2023-05-24T15:54:32.094Z,23.17
2023-05-24T15:57:00.637Z,23.30
2023-05-24T15:59:27.976Z,23.11
2023-05-24T16:01:55.090Z,23.26
2023-05-24T16:04:21.879Z,23.18
2023-05-24T16:06:49.311Z,23.82
2023-05-24T16:09:16.115Z,24.05
2023-05-24T16:11:42.772Z,23.94
2023-05-24T16:14:10.377Z,23.58
2023-05-24T16:16:38.098Z,23.88
2023-05-24T16:19:04.882Z,25.35
2023-05-24T16:21:32.922Z,24.42
2023-05-24T16:24:01.841Z,24.09
2023-05-24T16:26:30.807Z,24.85
2023-05-24T16:28:57.749Z,25.12
2023-05-24T16:31:24.640Z,24.84
2023-05-24T16:33:51.410Z,24.04
2023-05-24T16:36:18.012Z,24.33
2023-05-24T16:38:44.610Z,24.55
2023-05-24T16:41:11.217Z,25.40
2023-05-24T16:43:38.083Z,25.62
2023-05-24T16:46:04.751Z,25.87
2023-05-24T16:48:31.671Z,26.25
2023-05-24T16:50:58.872Z,24.37
2023-05-24T16:53:27.228Z,23.90
2023-05-24T16:55:55.839Z,23.99
2023-05-24T16:58:28.685Z,24.60
2023-05-24T17:00:55.384Z,23.54
2023-05-24T17:03:27.747Z,23.81
2023-05-24T17:05:55.516Z,23.93
2023-05-24T17:08:22.510Z,23.29
2023-05-24T17:10:55.846Z,22.81
2023-05-24T17:13:29.380Z,22.32
2023-05-24T17:15:57.298Z,22.30
2023-05-24T17:18:28.441Z,22.01
2023-05-24T17:21:00.380Z,22.02
2023-05-24T17:23:28.428Z,22.15
2023-05-24T17:25:57.924Z,22.19
2023-05-24T17:28:28.605Z,22.23
2023-05-24T17:30:56.376Z,22.14
2023-05-24T17:33:24.001Z,22.12
2023-05-24T17:35:51.197Z,22.09
2023-05-24T17:38:18.505Z,21.97
2023-05-24T17:40:49.010Z,22.47
2023-05-24T17:43:15.683Z,22.42
2023-05-24T17:45:42.977Z,22.27
2023-05-24T17:48:10.290Z,21.98
2023-05-24T17:50:36.901Z,22.10
2023-05-24T17:53:03.607Z,22.02
2023-05-24T17:55:30.216Z,21.87
2023-05-24T17:57:57.830Z,21.97
2023-05-24T18:00:24.502Z,21.95
2023-05-24T18:02:51.210Z,21.92
2023-05-24T18:05:17.961Z,21.54
2023-05-24T18:07:44.572Z,21.05
2023-05-24T18:10:11.471Z,21.01
2023-05-24T18:12:38.756Z,20.69
2023-05-24T18:15:06.452Z,20.51
2023-05-24T18:17:33.093Z,20.67
2023-05-24T18:19:59.787Z,20.47
2023-05-24T18:22:26.914Z,20.51
2023-05-24T18:24:53.442Z,20.76
2023-05-24T18:27:20.592Z,20.89
2023-05-24T18:29:47.192Z,21.02
2023-05-24T18:32:14.465Z,21.00
2023-05-24T18:34:41.388Z,21.17
2023-05-24T18:37:08.195Z,21.29
2023-05-24T18:39:35.957Z,21.26
2023-05-24T18:42:02.792Z,21.23
2023-05-24T18:44:29.516Z,21.28
2023-05-24T18:46:58.097Z,21.15
2023-05-24T18:49:24.887Z,21.14
2023-05-24T18:51:51.691Z,21.20
2023-05-24T18:54:18.341Z,21.15
2023-05-24T18:56:47.122Z,20.33
2023-05-24T18:59:14.376Z,20.30
2023-05-24T19:01:41.716Z,20.26
2023-05-24T19:04:08.468Z,20.17
2023-05-24T19:06:35.024Z,20.08
2023-05-24T19:09:02.475Z,20.12
2023-05-24T19:11:29.085Z,20.08
2023-05-24T19:13:55.968Z,20.04
2023-05-24T19:16:22.741Z,20.01
2023-05-24T19:18:50.484Z,19.91
2023-05-24T19:21:18.102Z,19.95
2023-05-24T19:23:44.705Z,20.00
2023-05-24T19:26:11.506Z,19.95
2023-05-24T19:28:41.369Z,20.03
2023-05-24T19:31:07.965Z,19.90
2023-05-24T19:33:35.943Z,19.83
2023-05-24T19:36:05.549Z,19.81
2023-05-24T19:38:32.330Z,19.82
2023-05-24T19:40:59.032Z,19.82
2023-05-24T19:43:25.888Z,19.79
2023-05-24T19:45:54.353Z,19.77
2023-05-24T19:48:21.840Z,19.75
2023-05-24T19:50:49.285Z,19.77
2023-05-24T19:53:16.329Z,19.76
2023-05-24T19:55:43.958Z,19.80
2023-05-24T19:58:10.890Z,19.71
2023-05-24T20:00:37.474Z,19.69
2023-05-24T20:03:04.698Z,19.73
2023-05-24T20:05:31.616Z,19.68
2023-05-24T20:07:58.251Z,19.75
2023-05-24T20:10:25.060Z,19.72
2023-05-24T20:12:51.778Z,19.61
2023-05-24T20:15:18.775Z,19.70
2023-05-24T20:17:45.802Z,19.75
2023-05-24T20:20:12.668Z,19.77
2023-05-24T20:22:39.413Z,19.72
2023-05-24T20:25:06.737Z,19.70
2023-05-24T20:27:33.350Z,19.66
2023-05-24T20:30:00.024Z,19.65
2023-05-24T20:32:26.635Z,19.67
2023-05-24T20:34:53.482Z,19.62
2023-05-24T20:37:22.081Z,19.57
2023-05-24T20:39:48.815Z,19.55
2023-05-24T20:42:15.989Z,19.58
2023-05-24T20:44:42.841Z,19.67
2023-05-24T20:47:09.738Z,19.51
2023-05-24T20:49:36.488Z,19.52
2023-05-24T20:52:04.501Z,19.46
2023-05-24T20:54:31.374Z,19.35
2023-05-24T20:56:59.629Z,19.37
2023-05-24T20:59:26.273Z,19.37
2023-05-24T21:01:53.582Z,19.25
2023-05-24T21:04:20.296Z,19.30
2023-05-24T21:06:46.937Z,19.21
2023-05-24T21:09:13.530Z,19.21
2023-05-24T21:11:40.347Z,19.28
2023-05-24T21:14:06.955Z,19.27
2023-05-24T21:16:33.578Z,19.33
2023-05-24T21:19:00.865Z,19.32
2023-05-24T21:21:27.501Z,19.22
2023-05-24T21:23:55.668Z,19.20
2023-05-24T21:26:22.854Z,19.19
2023-05-24T21:28:49.736Z,19.20
2023-05-24T21:31:17.262Z,19.19
2023-05-24T21:33:44.171Z,19.24
2023-05-24T21:36:11.031Z,19.13
2023-05-24T21:38:37.635Z,19.14
2023-05-24T21:41:05.369Z,19.17
2023-05-24T21:43:32.112Z,19.15
2023-05-24T21:45:58.818Z,19.10
2023-05-24T21:48:26.108Z,19.06
2023-05-24T21:50:52.725Z,19.07
2023-05-24T21:53:19.284Z,19.06
2023-05-24T21:55:46.047Z,19.02
2023-05-24T21:58:12.684Z,19.16
2023-05-24T22:00:39.327Z,19.08
2023-05-24T22:03:06.057Z,19.00
2023-05-24T22:05:32.764Z,18.95
2023-05-24T22:07:59.324Z,18.94
2023-05-24T22:10:26.413Z,18.93
2023-05-24T22:12:53.017Z,18.87
2023-05-24T22:15:19.780Z,18.85
2023-05-24T22:17:46.316Z,18.77
2023-05-24T22:20:13.037Z,18.81
2023-05-24T22:22:48.453Z,18.77
2023-05-24T22:25:19.338Z,18.77
2023-05-24T22:27:49.962Z,18.77
2023-05-24T22:30:17.607Z,18.72
2023-05-24T22:32:44.389Z,18.72
2023-05-24T22:35:11.059Z,18.58
2023-05-24T22:37:37.855Z,18.59
2023-05-24T22:40:05.512Z,18.46
2023-05-24T22:42:32.053Z,18.51
2023-05-24T22:44:59.366Z,18.43
2023-05-24T22:47:26.792Z,18.37
2023-05-24T22:49:54.150Z,18.33
2023-05-24T22:52:21.064Z,18.32
2023-05-24T22:54:47.699Z,18.30
2023-05-24T22:57:14.343Z,18.18
2023-05-24T22:59:42.762Z,18.17
2023-05-24T23:02:09.374Z,18.36
2023-05-24T23:04:37.837Z,18.36
2023-05-24T23:07:04.993Z,18.25
2023-05-24T23:09:35.364Z,18.15
2023-05-24T23:12:07.461Z,18.07
2023-05-24T23:14:38.435Z,18.08
2023-05-24T23:17:06.463Z,18.12
2023-05-24T23:19:33.094Z,17.90
2023-05-24T23:21:59.691Z,17.95
2023-05-24T23:24:26.899Z,17.76
2023-05-24T23:26:55.810Z,17.78
2023-05-24T23:29:22.575Z,17.58
2023-05-24T23:31:49.288Z,17.59
2023-05-24T23:34:15.996Z,17.59
2023-05-24T23:36:42.622Z,17.52
2023-05-24T23:39:10.979Z,17.45
2023-05-24T23:41:37.596Z,17.29
2023-05-24T23:44:04.166Z,17.38
2023-05-24T23:46:31.335Z,17.34
2023-05-24T23:48:58.013Z,17.37
2023-05-24T23:51:24.635Z,17.33
2023-05-24T23:53:51.252Z,17.29
2023-05-24T23:56:17.894Z,17.41
2023-05-24T23:58:44.658Z,17.35
